sensor_id;sensor_type;location;lat;lon;timestamp;P1;durP1;ratioP1;P2;durP2;ratioP2
47882;SDS011;37739;50.350;7.578;2023-03-16T00:00:05;4.97;;;3.93;;
47882;SDS011;37739;50.350;7.578;2023-03-16T00:02:37;5.90;;;4.80;;
47882;SDS011;37739;50.350;7.578;2023-03-16T00:05:09;5.20;;;4.70;;
47882;SDS011;37739;50.350;7.578;2023-03-16T01:08:11;3.20;;;2.93;;
47882;SDS011;37739;50.350;7.578;2023-03-16T01:10:36;5.00;;;4.20;;
47882;SDS011;37739;50.350;7.578;2023-03-16T01:13:04;6.20;;;4.10;;
47882;SDS011;37739;50.350;7.578;2023-03-16T01:15:31;4.17;;;3.77;;
47882;SDS011;37739;50.350;7.578;2023-03-16T01:17:58;4.83;;;4.33;;
47882;SDS011;37739;50.350;7.578;2023-03-16T01:20:31;7.80;;;5.30;;
47882;SDS011;37739;50.350;7.578;2023-03-16T01:22:57;5.40;;;4.53;;
47882;SDS011;37739;50.350;7.578;2023-03-16T01:25:22;6.43;;;5.83;;
47882;SDS011;37739;50.350;7.578;2023-03-16T01:27:48;5.50;;;4.67;;
47882;SDS011;37739;50.350;7.578;2023-03-16T01:30:16;5.67;;;4.67;;
47882;SDS011;37739;50.350;7.578;2023-03-16T01:32:41;6.40;;;5.00;;
47882;SDS011;37739;50.350;7.578;2023-03-16T01:35:07;5.37;;;4.47;;
47882;SDS011;37739;50.350;7.578;2023-03-16T01:37:35;9.40;;;4.30;;
47882;SDS011;37739;50.350;7.578;2023-03-16T01:40:03;5.13;;;4.63;;
47882;SDS011;37739;50.350;7.578;2023-03-16T01:42:30;6.03;;;4.93;;
47882;SDS011;37739;50.350;7.578;2023-03-16T01:45:05;4.60;;;4.17;;
47882;SDS011;37739;50.350;7.578;2023-03-16T01:47:31;7.10;;;4.73;;
47882;SDS011;37739;50.350;7.578;2023-03-16T01:50:02;7.17;;;5.33;;
47882;SDS011;37739;50.350;7.578;2023-03-16T01:52:30;7.03;;;5.03;;
47882;SDS011;37739;50.350;7.578;2023-03-16T01:55:02;5.33;;;4.60;;
47882;SDS011;37739;50.350;7.578;2023-03-16T01:57:36;7.90;;;5.13;;
47882;SDS011;37739;50.350;7.578;2023-03-16T02:00:07;7.77;;;4.70;;
47882;SDS011;37739;50.350;7.578;2023-03-16T02:02:39;5.00;;;4.50;;
47882;SDS011;37739;50.350;7.578;2023-03-16T02:07:48;4.90;;;4.43;;
47882;SDS011;37739;50.350;7.578;2023-03-16T02:10:16;4.33;;;3.90;;
47882;SDS011;37739;50.350;7.578;2023-03-16T02:12:44;5.03;;;4.13;;
47882;SDS011;37739;50.350;7.578;2023-03-16T02:15:11;6.13;;;4.60;;
47882;SDS011;37739;50.350;7.578;2023-03-16T02:17:38;4.90;;;4.40;;
47882;SDS011;37739;50.350;7.578;2023-03-16T02:20:23;6.07;;;3.93;;
47882;SDS011;37739;50.350;7.578;2023-03-16T02:23:12;6.60;;;4.93;;
47882;SDS011;37739;50.350;7.578;2023-03-16T02:25:47;4.57;;;4.00;;
47882;SDS011;37739;50.350;7.578;2023-03-16T02:28:25;4.17;;;3.77;;
47882;SDS011;37739;50.350;7.578;2023-03-16T02:30:57;5.73;;;4.53;;
47882;SDS011;37739;50.350;7.578;2023-03-16T02:33:26;6.43;;;5.30;;
47882;SDS011;37739;50.350;7.578;2023-03-16T02:35:56;4.27;;;3.87;;
47882;SDS011;37739;50.350;7.578;2023-03-16T02:38:21;4.47;;;3.80;;
47882;SDS011;37739;50.350;7.578;2023-03-16T02:40:53;6.60;;;5.90;;
47882;SDS011;37739;50.350;7.578;2023-03-16T02:43:22;5.30;;;4.10;;
47882;SDS011;37739;50.350;7.578;2023-03-16T02:45:56;5.90;;;5.33;;
47882;SDS011;37739;50.350;7.578;2023-03-16T02:48:29;5.47;;;4.97;;
47882;SDS011;37739;50.350;7.578;2023-03-16T02:51:02;5.00;;;4.40;;
47882;SDS011;37739;50.350;7.578;2023-03-16T02:53:28;5.50;;;4.90;;
47882;SDS011;37739;50.350;7.578;2023-03-16T02:55:53;4.77;;;4.37;;
47882;SDS011;37739;50.350;7.578;2023-03-16T02:58:19;7.80;;;4.77;;
47882;SDS011;37739;50.350;7.578;2023-03-16T03:00:47;7.57;;;5.37;;
47882;SDS011;37739;50.350;7.578;2023-03-16T03:03:14;4.73;;;4.10;;
47882;SDS011;37739;50.350;7.578;2023-03-16T03:05:39;5.67;;;5.07;;
47882;SDS011;37739;50.350;7.578;2023-03-16T03:08:07;6.07;;;5.00;;
47882;SDS011;37739;50.350;7.578;2023-03-16T03:10:32;4.57;;;4.17;;
47882;SDS011;37739;50.350;7.578;2023-03-16T03:12:58;5.10;;;4.20;;
47882;SDS011;37739;50.350;7.578;2023-03-16T03:15:28;5.10;;;4.57;;
47882;SDS011;37739;50.350;7.578;2023-03-16T03:17:55;4.87;;;3.90;;
47882;SDS011;37739;50.350;7.578;2023-03-16T03:20:23;5.27;;;4.70;;
47882;SDS011;37739;50.350;7.578;2023-03-16T03:22:48;6.43;;;4.80;;
47882;SDS011;37739;50.350;7.578;2023-03-16T03:25:19;6.10;;;4.73;;
47882;SDS011;37739;50.350;7.578;2023-03-16T03:27:49;4.80;;;4.17;;
47882;SDS011;37739;50.350;7.578;2023-03-16T03:30:18;5.90;;;4.80;;
47882;SDS011;37739;50.350;7.578;2023-03-16T03:32:48;6.40;;;4.33;;
47882;SDS011;37739;50.350;7.578;2023-03-16T03:35:18;5.53;;;4.93;;
47882;SDS011;37739;50.350;7.578;2023-03-16T03:37:47;9.27;;;5.33;;
47882;SDS011;37739;50.350;7.578;2023-03-16T03:40:14;5.10;;;4.60;;
47882;SDS011;37739;50.350;7.578;2023-03-16T03:42:43;4.50;;;4.00;;
47882;SDS011;37739;50.350;7.578;2023-03-16T03:45:09;6.03;;;5.10;;
47882;SDS011;37739;50.350;7.578;2023-03-16T03:47:38;6.80;;;4.90;;
47882;SDS011;37739;50.350;7.578;2023-03-16T03:50:07;5.67;;;4.80;;
47882;SDS011;37739;50.350;7.578;2023-03-16T03:52:34;6.00;;;4.83;;
47882;SDS011;37739;50.350;7.578;2023-03-16T03:54:59;6.90;;;5.23;;
47882;SDS011;37739;50.350;7.578;2023-03-16T03:57:27;5.70;;;4.57;;
47882;SDS011;37739;50.350;7.578;2023-03-16T03:59:52;5.83;;;4.50;;
47882;SDS011;37739;50.350;7.578;2023-03-16T04:02:19;7.40;;;5.17;;
47882;SDS011;37739;50.350;7.578;2023-03-16T04:04:47;6.33;;;5.30;;
47882;SDS011;37739;50.350;7.578;2023-03-16T04:07:14;6.37;;;5.73;;
47882;SDS011;37739;50.350;7.578;2023-03-16T04:09:40;5.80;;;5.30;;
47882;SDS011;37739;50.350;7.578;2023-03-16T04:12:09;6.10;;;5.50;;
47882;SDS011;37739;50.350;7.578;2023-03-16T04:14:35;6.40;;;5.53;;
47882;SDS011;37739;50.350;7.578;2023-03-16T04:17:02;5.70;;;5.03;;
47882;SDS011;37739;50.350;7.578;2023-03-16T04:19:28;7.60;;;4.67;;
47882;SDS011;37739;50.350;7.578;2023-03-16T04:21:54;6.80;;;5.47;;
47882;SDS011;37739;50.350;7.578;2023-03-16T04:24:24;6.60;;;4.83;;
47882;SDS011;37739;50.350;7.578;2023-03-16T04:26:51;5.07;;;4.43;;
47882;SDS011;37739;50.350;7.578;2023-03-16T04:29:18;5.53;;;4.50;;
47882;SDS011;37739;50.350;7.578;2023-03-16T04:31:46;5.93;;;5.10;;
47882;SDS011;37739;50.350;7.578;2023-03-16T04:34:14;6.47;;;5.70;;
47882;SDS011;37739;50.350;7.578;2023-03-16T04:36:41;6.90;;;5.90;;
47882;SDS011;37739;50.350;7.578;2023-03-16T04:39:07;6.93;;;6.33;;
47882;SDS011;37739;50.350;7.578;2023-03-16T04:41:33;6.90;;;5.47;;
47882;SDS011;37739;50.350;7.578;2023-03-16T04:44:02;7.03;;;5.80;;
47882;SDS011;37739;50.350;7.578;2023-03-16T04:46:28;7.80;;;7.00;;
47882;SDS011;37739;50.350;7.578;2023-03-16T04:48:57;7.20;;;6.13;;
47882;SDS011;37739;50.350;7.578;2023-03-16T04:51:24;6.30;;;5.70;;
47882;SDS011;37739;50.350;7.578;2023-03-16T04:53:57;9.10;;;6.67;;
47882;SDS011;37739;50.350;7.578;2023-03-16T04:56:22;6.60;;;6.00;;
47882;SDS011;37739;50.350;7.578;2023-03-16T04:58:52;8.37;;;5.60;;
47882;SDS011;37739;50.350;7.578;2023-03-16T05:01:17;7.17;;;6.17;;
47882;SDS011;37739;50.350;7.578;2023-03-16T05:03:43;8.40;;;5.93;;
47882;SDS011;37739;50.350;7.578;2023-03-16T05:06:10;7.10;;;6.33;;
47882;SDS011;37739;50.350;7.578;2023-03-16T05:08:36;9.03;;;6.77;;
47882;SDS011;37739;50.350;7.578;2023-03-16T05:11:04;8.67;;;6.10;;
47882;SDS011;37739;50.350;7.578;2023-03-16T05:13:32;6.63;;;5.53;;
47882;SDS011;37739;50.350;7.578;2023-03-16T05:15:58;7.30;;;6.10;;
47882;SDS011;37739;50.350;7.578;2023-03-16T05:18:26;8.30;;;6.90;;
47882;SDS011;37739;50.350;7.578;2023-03-16T05:20:57;6.90;;;6.20;;
47882;SDS011;37739;50.350;7.578;2023-03-16T05:23:22;7.53;;;5.93;;
47882;SDS011;37739;50.350;7.578;2023-03-16T05:25:47;7.90;;;5.80;;
47882;SDS011;37739;50.350;7.578;2023-03-16T05:28:14;7.90;;;6.07;;
47882;SDS011;37739;50.350;7.578;2023-03-16T05:30:39;8.90;;;6.63;;
47882;SDS011;37739;50.350;7.578;2023-03-16T05:33:06;9.70;;;7.40;;
47882;SDS011;37739;50.350;7.578;2023-03-16T05:35:31;9.00;;;7.27;;
47882;SDS011;37739;50.350;7.578;2023-03-16T05:37:57;8.70;;;6.70;;
47882;SDS011;37739;50.350;7.578;2023-03-16T05:40:27;8.30;;;6.37;;
47882;SDS011;37739;50.350;7.578;2023-03-16T05:42:55;9.10;;;6.80;;
47882;SDS011;37739;50.350;7.578;2023-03-16T05:45:22;8.43;;;6.53;;
47882;SDS011;37739;50.350;7.578;2023-03-16T05:47:48;8.40;;;6.73;;
47882;SDS011;37739;50.350;7.578;2023-03-16T05:50:14;9.97;;;8.00;;
47882;SDS011;37739;50.350;7.578;2023-03-16T05:52:41;7.40;;;6.67;;
47882;SDS011;37739;50.350;7.578;2023-03-16T05:55:08;9.03;;;7.03;;
47882;SDS011;37739;50.350;7.578;2023-03-16T05:57:39;11.90;;;8.13;;
47882;SDS011;37739;50.350;7.578;2023-03-16T06:00:08;10.00;;;7.60;;
47882;SDS011;37739;50.350;7.578;2023-03-16T06:02:44;7.47;;;6.37;;
47882;SDS011;37739;50.350;7.578;2023-03-16T06:05:16;8.37;;;7.00;;
47882;SDS011;37739;50.350;7.578;2023-03-16T06:07:44;7.90;;;6.93;;
47882;SDS011;37739;50.350;7.578;2023-03-16T06:10:10;10.00;;;7.40;;
47882;SDS011;37739;50.350;7.578;2023-03-16T06:12:39;8.63;;;7.70;;
47882;SDS011;37739;50.350;7.578;2023-03-16T06:15:05;7.60;;;6.90;;
47882;SDS011;37739;50.350;7.578;2023-03-16T06:17:35;8.70;;;7.37;;
47882;SDS011;37739;50.350;7.578;2023-03-16T06:20:02;7.93;;;6.67;;
47882;SDS011;37739;50.350;7.578;2023-03-16T06:22:35;9.40;;;7.33;;
47882;SDS011;37739;50.350;7.578;2023-03-16T06:25:06;7.40;;;6.60;;
47882;SDS011;37739;50.350;7.578;2023-03-16T06:27:32;9.23;;;7.50;;
47882;SDS011;37739;50.350;7.578;2023-03-16T06:30:02;8.43;;;7.20;;
47882;SDS011;37739;50.350;7.578;2023-03-16T06:32:30;8.53;;;7.63;;
47882;SDS011;37739;50.350;7.578;2023-03-16T06:34:55;8.37;;;7.47;;
47882;SDS011;37739;50.350;7.578;2023-03-16T06:37:23;8.43;;;7.63;;
47882;SDS011;37739;50.350;7.578;2023-03-16T06:39:49;7.80;;;7.00;;
47882;SDS011;37739;50.350;7.578;2023-03-16T06:42:16;10.17;;;7.83;;
47882;SDS011;37739;50.350;7.578;2023-03-16T06:44:42;9.60;;;8.23;;
47882;SDS011;37739;50.350;7.578;2023-03-16T06:47:09;8.20;;;6.73;;
47882;SDS011;37739;50.350;7.578;2023-03-16T06:49:38;10.60;;;9.17;;
47882;SDS011;37739;50.350;7.578;2023-03-16T06:52:06;10.30;;;8.27;;
47882;SDS011;37739;50.350;7.578;2023-03-16T06:54:34;10.50;;;8.70;;
47882;SDS011;37739;50.350;7.578;2023-03-16T06:57:03;9.53;;;8.53;;
47882;SDS011;37739;50.350;7.578;2023-03-16T06:59:29;9.90;;;8.90;;
47882;SDS011;37739;50.350;7.578;2023-03-16T07:01:57;7.57;;;6.80;;
47882;SDS011;37739;50.350;7.578;2023-03-16T07:04:22;8.10;;;7.30;;
47882;SDS011;37739;50.350;7.578;2023-03-16T07:06:47;10.80;;;9.17;;
47882;SDS011;37739;50.350;7.578;2023-03-16T07:09:12;11.87;;;8.83;;
47882;SDS011;37739;50.350;7.578;2023-03-16T07:11:40;11.33;;;9.43;;
47882;SDS011;37739;50.350;7.578;2023-03-16T07:14:07;11.37;;;10.27;;
47882;SDS011;37739;50.350;7.578;2023-03-16T07:16:35;10.80;;;9.70;;
47882;SDS011;37739;50.350;7.578;2023-03-16T07:19:03;11.20;;;9.43;;
47882;SDS011;37739;50.350;7.578;2023-03-16T07:21:28;10.30;;;9.20;;
47882;SDS011;37739;50.350;7.578;2023-03-16T07:23:56;10.60;;;9.50;;
47882;SDS011;37739;50.350;7.578;2023-03-16T07:26:23;10.53;;;9.23;;
47882;SDS011;37739;50.350;7.578;2023-03-16T07:28:51;11.73;;;9.93;;
47882;SDS011;37739;50.350;7.578;2023-03-16T07:31:19;11.60;;;10.40;;
47882;SDS011;37739;50.350;7.578;2023-03-16T07:33:44;10.97;;;9.97;;
47882;SDS011;37739;50.350;7.578;2023-03-16T07:36:10;13.70;;;10.97;;
47882;SDS011;37739;50.350;7.578;2023-03-16T07:38:35;15.50;;;12.30;;
47882;SDS011;37739;50.350;7.578;2023-03-16T07:41:04;11.30;;;10.20;;
47882;SDS011;37739;50.350;7.578;2023-03-16T07:43:32;10.60;;;9.50;;
47882;SDS011;37739;50.350;7.578;2023-03-16T07:45:58;10.40;;;9.40;;
47882;SDS011;37739;50.350;7.578;2023-03-16T07:48:23;10.37;;;9.00;;
47882;SDS011;37739;50.350;7.578;2023-03-16T07:50:50;9.43;;;8.53;;
47882;SDS011;37739;50.350;7.578;2023-03-16T07:53:15;12.33;;;10.67;;
47882;SDS011;37739;50.350;7.578;2023-03-16T07:55:43;8.90;;;8.10;;
47882;SDS011;37739;50.350;7.578;2023-03-16T07:58:11;9.53;;;8.50;;
47882;SDS011;37739;50.350;7.578;2023-03-16T08:00:39;11.30;;;10.10;;
47882;SDS011;37739;50.350;7.578;2023-03-16T08:03:06;11.23;;;10.10;;
47882;SDS011;37739;50.350;7.578;2023-03-16T08:05:37;10.63;;;9.60;;
47882;SDS011;37739;50.350;7.578;2023-03-16T08:08:05;11.47;;;10.37;;
47882;SDS011;37739;50.350;7.578;2023-03-16T08:10:36;11.90;;;10.57;;
47882;SDS011;37739;50.350;7.578;2023-03-16T08:13:02;11.57;;;10.40;;
47882;SDS011;37739;50.350;7.578;2023-03-16T08:15:29;9.67;;;8.70;;
47882;SDS011;37739;50.350;7.578;2023-03-16T08:17:57;12.33;;;10.00;;
47882;SDS011;37739;50.350;7.578;2023-03-16T08:20:24;9.10;;;8.20;;
47882;SDS011;37739;50.350;7.578;2023-03-16T08:22:49;10.90;;;8.20;;
47882;SDS011;37739;50.350;7.578;2023-03-16T08:25:17;9.57;;;8.57;;
47882;SDS011;37739;50.350;7.578;2023-03-16T08:27:47;8.77;;;7.57;;
47882;SDS011;37739;50.350;7.578;2023-03-16T08:30:13;9.07;;;8.13;;
47882;SDS011;37739;50.350;7.578;2023-03-16T08:32:40;9.00;;;8.20;;
47882;SDS011;37739;50.350;7.578;2023-03-16T08:35:06;8.80;;;7.90;;
47882;SDS011;37739;50.350;7.578;2023-03-16T08:37:33;8.60;;;7.70;;
47882;SDS011;37739;50.350;7.578;2023-03-16T08:40:01;8.07;;;6.70;;
47882;SDS011;37739;50.350;7.578;2023-03-16T08:42:29;7.33;;;5.80;;
47882;SDS011;37739;50.350;7.578;2023-03-16T08:44:55;8.30;;;7.20;;
47882;SDS011;37739;50.350;7.578;2023-03-16T08:47:21;6.53;;;5.93;;
47882;SDS011;37739;50.350;7.578;2023-03-16T08:49:49;8.37;;;6.97;;
47882;SDS011;37739;50.350;7.578;2023-03-16T08:52:14;8.60;;;7.80;;
47882;SDS011;37739;50.350;7.578;2023-03-16T08:54:40;7.90;;;6.33;;
47882;SDS011;37739;50.350;7.578;2023-03-16T08:57:08;9.13;;;7.40;;
47882;SDS011;37739;50.350;7.578;2023-03-16T08:59:34;7.93;;;7.13;;
47882;SDS011;37739;50.350;7.578;2023-03-16T09:02:02;10.23;;;6.73;;
47882;SDS011;37739;50.350;7.578;2023-03-16T09:04:28;7.80;;;6.97;;
47882;SDS011;37739;50.350;7.578;2023-03-16T09:06:54;8.10;;;7.40;;
47882;SDS011;37739;50.350;7.578;2023-03-16T09:09:22;8.00;;;6.73;;
47882;SDS011;37739;50.350;7.578;2023-03-16T09:11:47;7.37;;;6.40;;
47882;SDS011;37739;50.350;7.578;2023-03-16T09:14:14;8.40;;;6.60;;
47882;SDS011;37739;50.350;7.578;2023-03-16T09:16:39;7.33;;;5.70;;
47882;SDS011;37739;50.350;7.578;2023-03-16T09:19:08;6.83;;;5.90;;
47882;SDS011;37739;50.350;7.578;2023-03-16T09:21:37;11.20;;;6.40;;
47882;SDS011;37739;50.350;7.578;2023-03-16T09:24:07;8.17;;;6.17;;
47882;SDS011;37739;50.350;7.578;2023-03-16T09:26:35;6.70;;;6.00;;
47882;SDS011;37739;50.350;7.578;2023-03-16T09:29:02;6.67;;;5.97;;
47882;SDS011;37739;50.350;7.578;2023-03-16T09:31:31;6.30;;;5.70;;
47882;SDS011;37739;50.350;7.578;2023-03-16T09:34:00;6.30;;;5.80;;
47882;SDS011;37739;50.350;7.578;2023-03-16T09:36:25;7.10;;;5.60;;
47882;SDS011;37739;50.350;7.578;2023-03-16T09:38:53;6.33;;;5.40;;
47882;SDS011;37739;50.350;7.578;2023-03-16T09:41:30;6.63;;;6.03;;
47882;SDS011;37739;50.350;7.578;2023-03-16T09:47:00;7.00;;;6.30;;
47882;SDS011;37739;50.350;7.578;2023-03-16T09:49:32;6.07;;;5.47;;
47882;SDS011;37739;50.350;7.578;2023-03-16T10:07:24;6.37;;;5.77;;
47882;SDS011;37739;50.350;7.578;2023-03-16T10:12:37;6.33;;;5.10;;
47882;SDS011;37739;50.350;7.578;2023-03-16T10:15:11;5.93;;;5.20;;
47882;SDS011;37739;50.350;7.578;2023-03-16T10:17:41;5.50;;;5.00;;
47882;SDS011;37739;50.350;7.578;2023-03-16T10:20:26;4.97;;;4.47;;
47882;SDS011;37739;50.350;7.578;2023-03-16T10:22:52;4.60;;;4.20;;
47882;SDS011;37739;50.350;7.578;2023-03-16T10:25:24;7.17;;;5.37;;
47882;SDS011;37739;50.350;7.578;2023-03-16T10:27:55;4.67;;;4.27;;
47882;SDS011;37739;50.350;7.578;2023-03-16T10:32:53;5.37;;;4.87;;
47882;SDS011;37739;50.350;7.578;2023-03-16T10:38:07;4.20;;;3.80;;
47882;SDS011;37739;50.350;7.578;2023-03-16T10:40:36;5.80;;;4.67;;
47882;SDS011;37739;50.350;7.578;2023-03-16T10:43:06;5.10;;;4.60;;
47882;SDS011;37739;50.350;7.578;2023-03-16T10:45:38;4.80;;;4.30;;
47882;SDS011;37739;50.350;7.578;2023-03-16T10:48:13;5.10;;;3.90;;
47882;SDS011;37739;50.350;7.578;2023-03-16T10:50:47;4.60;;;4.00;;
47882;SDS011;37739;50.350;7.578;2023-03-16T10:53:20;4.30;;;3.93;;
47882;SDS011;37739;50.350;7.578;2023-03-16T10:55:49;4.90;;;4.40;;
47882;SDS011;37739;50.350;7.578;2023-03-16T10:58:33;5.43;;;4.10;;
47882;SDS011;37739;50.350;7.578;2023-03-16T11:00:59;4.73;;;4.33;;
47882;SDS011;37739;50.350;7.578;2023-03-16T11:03:29;5.60;;;5.10;;
47882;SDS011;37739;50.350;7.578;2023-03-16T11:06:03;4.00;;;3.70;;
47882;SDS011;37739;50.350;7.578;2023-03-16T11:08:32;4.57;;;3.60;;
47882;SDS011;37739;50.350;7.578;2023-03-16T11:10:59;7.10;;;3.87;;
47882;SDS011;37739;50.350;7.578;2023-03-16T11:13:34;4.30;;;3.60;;
47882;SDS011;37739;50.350;7.578;2023-03-16T11:19:23;4.60;;;3.30;;
47882;SDS011;37739;50.350;7.578;2023-03-16T11:22:07;4.13;;;3.73;;
47882;SDS011;37739;50.350;7.578;2023-03-16T11:33:09;3.93;;;3.57;;
47882;SDS011;37739;50.350;7.578;2023-03-16T11:38:07;4.70;;;3.53;;
47882;SDS011;37739;50.350;7.578;2023-03-16T11:48:41;3.97;;;3.60;;
47882;SDS011;37739;50.350;7.578;2023-03-16T11:51:29;4.87;;;3.90;;
47882;SDS011;37739;50.350;7.578;2023-03-16T11:56:49;5.93;;;4.20;;
47882;SDS011;37739;50.350;7.578;2023-03-16T11:59:39;4.70;;;3.83;;
47882;SDS011;37739;50.350;7.578;2023-03-16T12:12:56;6.40;;;4.00;;
47882;SDS011;37739;50.350;7.578;2023-03-16T12:15:38;5.47;;;3.60;;
47882;SDS011;37739;50.350;7.578;2023-03-16T12:20:45;5.03;;;3.47;;
47882;SDS011;37739;50.350;7.578;2023-03-16T12:23:19;3.30;;;3.00;;
47882;SDS011;37739;50.350;7.578;2023-03-16T12:25:52;3.87;;;3.57;;
47882;SDS011;37739;50.350;7.578;2023-03-16T12:28:22;4.00;;;3.60;;
47882;SDS011;37739;50.350;7.578;2023-03-16T12:30:52;3.60;;;3.30;;
47882;SDS011;37739;50.350;7.578;2023-03-16T12:42:03;3.97;;;3.67;;
47882;SDS011;37739;50.350;7.578;2023-03-16T12:49:49;4.37;;;3.97;;
47882;SDS011;37739;50.350;7.578;2023-03-16T12:52:18;3.70;;;3.40;;
47882;SDS011;37739;50.350;7.578;2023-03-16T12:55:04;3.77;;;3.30;;
47882;SDS011;37739;50.350;7.578;2023-03-16T12:57:32;3.80;;;3.30;;
47882;SDS011;37739;50.350;7.578;2023-03-16T13:00:00;4.73;;;3.70;;
47882;SDS011;37739;50.350;7.578;2023-03-16T13:02:29;3.77;;;3.20;;
47882;SDS011;37739;50.350;7.578;2023-03-16T13:04:59;3.30;;;3.00;;
47882;SDS011;37739;50.350;7.578;2023-03-16T13:10:58;3.83;;;3.43;;
47882;SDS011;37739;50.350;7.578;2023-03-16T13:13:31;3.80;;;3.50;;
47882;SDS011;37739;50.350;7.578;2023-03-16T13:16:07;3.23;;;2.90;;
47882;SDS011;37739;50.350;7.578;2023-03-16T13:18:37;3.63;;;3.27;;
47882;SDS011;37739;50.350;7.578;2023-03-16T13:24:13;3.70;;;3.30;;
47882;SDS011;37739;50.350;7.578;2023-03-16T13:27:14;3.33;;;2.87;;
47882;SDS011;37739;50.350;7.578;2023-03-16T13:29:53;4.97;;;3.63;;
47882;SDS011;37739;50.350;7.578;2023-03-16T13:32:28;4.47;;;3.30;;
47882;SDS011;37739;50.350;7.578;2023-03-16T13:34:58;3.50;;;3.20;;
47882;SDS011;37739;50.350;7.578;2023-03-16T13:37:26;3.20;;;2.90;;
47882;SDS011;37739;50.350;7.578;2023-03-16T13:39:54;4.60;;;3.10;;
47882;SDS011;37739;50.350;7.578;2023-03-16T13:42:22;3.40;;;3.10;;
47882;SDS011;37739;50.350;7.578;2023-03-16T13:44:52;4.03;;;3.67;;
47882;SDS011;37739;50.350;7.578;2023-03-16T13:47:21;4.10;;;3.50;;
47882;SDS011;37739;50.350;7.578;2023-03-16T13:54:56;3.57;;;3.07;;
47882;SDS011;37739;50.350;7.578;2023-03-16T13:57:26;4.33;;;3.50;;
47882;SDS011;37739;50.350;7.578;2023-03-16T14:00:01;4.67;;;3.37;;
47882;SDS011;37739;50.350;7.578;2023-03-16T14:02:29;5.30;;;3.23;;
47882;SDS011;37739;50.350;7.578;2023-03-16T14:04:57;4.10;;;3.67;;
47882;SDS011;37739;50.350;7.578;2023-03-16T14:07:36;4.03;;;3.00;;
47882;SDS011;37739;50.350;7.578;2023-03-16T14:10:02;4.33;;;3.93;;
47882;SDS011;37739;50.350;7.578;2023-03-16T14:12:29;3.70;;;3.40;;
47882;SDS011;37739;50.350;7.578;2023-03-16T14:14:54;3.67;;;3.00;;
47882;SDS011;37739;50.350;7.578;2023-03-16T14:17:20;4.00;;;3.17;;
47882;SDS011;37739;50.350;7.578;2023-03-16T14:19:51;4.20;;;3.80;;
47882;SDS011;37739;50.350;7.578;2023-03-16T14:22:32;4.07;;;3.67;;
47882;SDS011;37739;50.350;7.578;2023-03-16T14:25:03;3.60;;;3.30;;
47882;SDS011;37739;50.350;7.578;2023-03-16T14:30:13;5.10;;;3.60;;
47882;SDS011;37739;50.350;7.578;2023-03-16T14:35:27;4.30;;;3.80;;
47882;SDS011;37739;50.350;7.578;2023-03-16T14:41:03;4.53;;;3.90;;
47882;SDS011;37739;50.350;7.578;2023-03-16T14:43:32;5.40;;;4.37;;
47882;SDS011;37739;50.350;7.578;2023-03-16T14:46:02;4.20;;;3.80;;
47882;SDS011;37739;50.350;7.578;2023-03-16T14:48:29;4.33;;;3.93;;
47882;SDS011;37739;50.350;7.578;2023-03-16T14:50:59;4.63;;;4.00;;
47882;SDS011;37739;50.350;7.578;2023-03-16T14:53:29;5.67;;;4.27;;
47882;SDS011;37739;50.350;7.578;2023-03-16T14:55:55;3.70;;;3.40;;
47882;SDS011;37739;50.350;7.578;2023-03-16T14:58:21;3.87;;;3.47;;
47882;SDS011;37739;50.350;7.578;2023-03-16T15:00:49;4.90;;;3.90;;
47882;SDS011;37739;50.350;7.578;2023-03-16T15:03:21;7.80;;;3.83;;
47882;SDS011;37739;50.350;7.578;2023-03-16T15:05:53;3.97;;;3.37;;
47882;SDS011;37739;50.350;7.578;2023-03-16T15:10:50;4.47;;;3.77;;
47882;SDS011;37739;50.350;7.578;2023-03-16T15:13:20;4.77;;;4.27;;
47882;SDS011;37739;50.350;7.578;2023-03-16T15:16:05;4.10;;;3.60;;
47882;SDS011;37739;50.350;7.578;2023-03-16T15:18:33;3.70;;;3.30;;
47882;SDS011;37739;50.350;7.578;2023-03-16T15:21:02;4.23;;;3.63;;
47882;SDS011;37739;50.350;7.578;2023-03-16T15:23:31;6.20;;;3.97;;
47882;SDS011;37739;50.350;7.578;2023-03-16T15:25:59;4.23;;;3.37;;
47882;SDS011;37739;50.350;7.578;2023-03-16T15:28:31;3.17;;;2.87;;
47882;SDS011;37739;50.350;7.578;2023-03-16T15:30:57;3.67;;;3.17;;
47882;SDS011;37739;50.350;7.578;2023-03-16T15:33:26;3.60;;;2.87;;
47882;SDS011;37739;50.350;7.578;2023-03-16T15:35:52;3.70;;;2.60;;
47882;SDS011;37739;50.350;7.578;2023-03-16T15:38:21;3.03;;;2.73;;
47882;SDS011;37739;50.350;7.578;2023-03-16T15:40:52;4.70;;;3.67;;
47882;SDS011;37739;50.350;7.578;2023-03-16T15:43:19;2.40;;;2.20;;
47882;SDS011;37739;50.350;7.578;2023-03-16T15:45:47;4.00;;;3.07;;
47882;SDS011;37739;50.350;7.578;2023-03-16T15:48:15;2.50;;;2.30;;
47882;SDS011;37739;50.350;7.578;2023-03-16T15:50:50;3.83;;;3.17;;
47882;SDS011;37739;50.350;7.578;2023-03-16T15:53:19;3.53;;;2.80;;
47882;SDS011;37739;50.350;7.578;2023-03-16T15:55:51;3.40;;;2.63;;
47882;SDS011;37739;50.350;7.578;2023-03-16T15:58:21;2.90;;;2.60;;
47882;SDS011;37739;50.350;7.578;2023-03-16T16:00:52;3.47;;;3.17;;
47882;SDS011;37739;50.350;7.578;2023-03-16T16:03:23;4.33;;;3.20;;
47882;SDS011;37739;50.350;7.578;2023-03-16T16:05:52;4.03;;;3.63;;
47882;SDS011;37739;50.350;7.578;2023-03-16T16:08:20;3.03;;;2.73;;
47882;SDS011;37739;50.350;7.578;2023-03-16T16:10:46;3.77;;;3.47;;
47882;SDS011;37739;50.350;7.578;2023-03-16T16:13:18;3.20;;;2.90;;
47882;SDS011;37739;50.350;7.578;2023-03-16T16:15:48;3.97;;;3.60;;
47882;SDS011;37739;50.350;7.578;2023-03-16T16:18:22;4.37;;;2.63;;
47882;SDS011;37739;50.350;7.578;2023-03-16T16:20:53;3.83;;;2.83;;
47882;SDS011;37739;50.350;7.578;2023-03-16T16:23:19;3.80;;;3.50;;
47882;SDS011;37739;50.350;7.578;2023-03-16T16:25:49;3.63;;;3.20;;
47882;SDS011;37739;50.350;7.578;2023-03-16T16:28:22;4.47;;;2.60;;
47882;SDS011;37739;50.350;7.578;2023-03-16T16:30:51;3.23;;;2.90;;
47882;SDS011;37739;50.350;7.578;2023-03-16T16:33:30;3.20;;;2.80;;
47882;SDS011;37739;50.350;7.578;2023-03-16T16:35:58;3.07;;;2.73;;
47882;SDS011;37739;50.350;7.578;2023-03-16T16:38:24;3.30;;;3.00;;
47882;SDS011;37739;50.350;7.578;2023-03-16T16:40:51;3.70;;;3.20;;
47882;SDS011;37739;50.350;7.578;2023-03-16T16:43:28;4.00;;;3.60;;
47882;SDS011;37739;50.350;7.578;2023-03-16T16:45:57;3.50;;;3.17;;
47882;SDS011;37739;50.350;7.578;2023-03-16T16:48:27;3.60;;;3.30;;
47882;SDS011;37739;50.350;7.578;2023-03-16T16:51:04;4.67;;;3.20;;
47882;SDS011;37739;50.350;7.578;2023-03-16T16:53:33;2.90;;;2.60;;
47882;SDS011;37739;50.350;7.578;2023-03-16T16:56:01;4.10;;;3.40;;
47882;SDS011;37739;50.350;7.578;2023-03-16T16:58:26;4.13;;;3.73;;
47882;SDS011;37739;50.350;7.578;2023-03-16T17:00:55;4.00;;;3.50;;
47882;SDS011;37739;50.350;7.578;2023-03-16T17:03:27;4.23;;;3.03;;
47882;SDS011;37739;50.350;7.578;2023-03-16T17:05:58;3.70;;;3.40;;
47882;SDS011;37739;50.350;7.578;2023-03-16T17:08:24;4.80;;;3.90;;
47882;SDS011;37739;50.350;7.578;2023-03-16T17:10:50;3.80;;;3.40;;
47882;SDS011;37739;50.350;7.578;2023-03-16T17:13:21;4.20;;;3.80;;
47882;SDS011;37739;50.350;7.578;2023-03-16T17:16:07;3.60;;;3.30;;
47882;SDS011;37739;50.350;7.578;2023-03-16T17:18:39;3.80;;;3.50;;
47882;SDS011;37739;50.350;7.578;2023-03-16T17:21:15;3.03;;;2.73;;
47882;SDS011;37739;50.350;7.578;2023-03-16T17:23:46;3.23;;;2.93;;
47882;SDS011;37739;50.350;7.578;2023-03-16T17:28:49;5.13;;;3.20;;
47882;SDS011;37739;50.350;7.578;2023-03-16T17:31:19;4.27;;;2.90;;
47882;SDS011;37739;50.350;7.578;2023-03-16T17:33:47;3.37;;;3.07;;
47882;SDS011;37739;50.350;7.578;2023-03-16T17:36:15;4.20;;;3.20;;
47882;SDS011;37739;50.350;7.578;2023-03-16T17:38:44;4.20;;;3.43;;
47882;SDS011;37739;50.350;7.578;2023-03-16T17:41:21;4.37;;;3.97;;
47882;SDS011;37739;50.350;7.578;2023-03-16T17:43:54;4.73;;;3.90;;